Time;durP1;ratioP1;P1;durP2;ratioP2;P2;SDS_P1;SDS_P2;PMS_P1;PMS_P2;Temp;Humidity;BMP_temperature;BMP_pressure;BME280_temperature;BME280_humidity;BME280_pressure;Samples;Min_cycle;Max_cycle;Signal;HPM_P1;HPM_P2
2022/07/30 00:00:23;;;;;;;1.30;1.30;;;24.40;67.10;;;;;;5111212;27;43941;-69
2022/07/30 00:02:52;;;;;;;1.37;1.37;;;24.40;67.10;;;;;;5108602;27;47207;-71
2022/07/30 00:05:20;;;;;;;1.40;1.40;;;24.30;68.00;;;;;;5108434;27;44627;-70
2022/07/30 00:07:48;;;;;;;1.33;1.33;;;24.30;68.00;;;;;;5127511;27;43962;-70
2022/07/30 00:10:16;;;;;;;1.57;1.57;;;24.40;67.70;;;;;;5127617;27;43834;-70
2022/07/30 00:12:44;;;;;;;1.50;1.50;;;24.50;67.20;;;;;;5127145;27;43966;-70
2022/07/30 00:15:13;;;;;;;1.20;1.20;;;24.60;67.00;;;;;;5127436;27;43904;-70
2022/07/30 00:17:41;;;;;;;1.37;1.37;;;24.70;66.60;;;;;;5127493;27;43841;-70
2022/07/30 00:20:13;;;;;;;1.30;1.30;;;24.70;66.40;;;;;;5128667;27;43985;-71
2022/07/30 00:22:41;;;;;;;1.33;1.33;;;24.70;66.30;;;;;;5130796;27;43918;-69
2022/07/30 00:25:09;;;;;;;1.30;1.30;;;24.60;66.70;;;;;;5130848;27;43967;-70
2022/07/30 00:27:37;;;;;;;1.53;1.53;;;24.60;66.90;;;;;;5130655;27;43970;-70
2022/07/30 00:30:06;;;;;;;1.40;1.40;;;24.50;66.70;;;;;;5112467;27;43431;-69
2022/07/30 00:32:36;;;;;;;1.43;1.43;;;24.50;66.70;;;;;;5130688;27;43952;-71
2022/07/30 00:35:04;;;;;;;1.50;1.50;;;24.40;66.90;;;;;;5131099;27;44267;-70
2022/07/30 00:37:32;;;;;;;1.40;1.40;;;24.40;67.70;;;;;;5130533;27;43837;-70
2022/07/30 00:40:00;;;;;;;1.40;1.40;;;24.40;67.40;;;;;;5130948;27;43965;-70
2022/07/30 00:42:37;;;;;;;1.50;1.50;;;24.40;67.90;;;;;;5111168;27;46982;-70
2022/07/30 00:45:06;;;;;;;1.50;1.50;;;24.30;67.30;;;;;;5130383;27;43907;-70
2022/07/30 00:47:36;;;;;;;1.33;1.33;;;24.30;68.10;;;;;;5130234;27;43967;-70
2022/07/30 00:50:06;;;;;;;1.40;1.40;;;24.40;68.00;;;;;;5130622;27;43950;-71
2022/07/30 00:52:35;;;;;;;1.37;1.37;;;24.40;67.50;;;;;;5088081;28;45835;-70
2022/07/30 00:55:03;;;;;;;1.40;1.40;;;24.50;67.10;;;;;;5081782;27;44661;-70
2022/07/30 00:57:32;;;;;;;1.60;1.60;;;24.60;66.80;;;;;;5103819;27;43885;-71
2022/07/30 01:00:03;;;;;;;1.53;1.53;;;24.70;66.50;;;;;;5104502;27;43935;-70
2022/07/30 01:02:36;;;;;;;1.50;1.50;;;24.70;66.40;;;;;;5110154;27;44079;-71
2022/07/30 01:05:04;;;;;;;1.47;1.47;;;24.70;66.30;;;;;;5091595;27;44954;-70
2022/07/30 01:07:33;;;;;;;1.40;1.40;;;24.60;66.90;;;;;;5124616;27;43944;-69
2022/07/30 01:10:01;;;;;;;1.57;1.57;;;24.60;66.80;;;;;;5111661;27;43507;-71
2022/07/30 01:12:29;;;;;;;1.67;1.67;;;24.50;66.70;;;;;;5129916;27;44024;-70
2022/07/30 01:14:57;;;;;;;1.70;1.70;;;24.50;66.70;;;;;;5129899;27;44230;-69
2022/07/30 01:17:25;;;;;;;1.50;1.50;;;24.40;67.60;;;;;;5125028;27;43965;-69
2022/07/30 01:19:57;;;;;;;1.50;1.50;;;24.40;67.50;;;;;;5091737;27;43881;-69
2022/07/30 01:22:36;;;;;;;1.47;1.47;;;24.40;67.20;;;;;;5091171;27;45831;-70
2022/07/30 01:25:09;;;;;;;1.70;1.70;;;24.30;67.20;;;;;;5109794;27;43932;-71
2022/07/30 01:27:43;;;;;;;1.60;1.60;;;24.30;68.00;;;;;;5091263;27;43987;-70
2022/07/30 01:30:11;;;;;;;1.40;1.40;;;24.30;68.00;;;;;;5091961;27;44114;-70
2022/07/30 01:32:42;;;;;;;1.30;1.30;;;24.40;67.60;;;;;;5109703;27;43970;-71
2022/07/30 01:35:11;;;;;;;1.50;1.50;;;24.50;67.30;;;;;;5091238;27;44343;-70
2022/07/30 01:37:39;;;;;;;1.40;1.40;;;24.60;66.80;;;;;;5091099;27;43325;-69
2022/07/30 01:40:08;;;;;;;1.47;1.47;;;24.70;66.50;;;;;;5091159;27;44033;-70
2022/07/30 01:42:36;;;;;;;1.57;1.57;;;24.70;66.30;;;;;;5090596;27;45741;-69
2022/07/30 01:45:07;;;;;;;1.40;1.40;;;24.70;66.10;;;;;;5109714;27;43908;-69
2022/07/30 01:47:35;;;;;;;1.43;1.43;;;24.60;66.70;;;;;;5109653;27;44169;-71
2022/07/30 01:50:04;;;;;;;1.47;1.47;;;24.60;66.90;;;;;;5091422;27;44011;-70
2022/07/30 01:52:37;;;;;;;1.40;1.40;;;24.50;66.60;;;;;;5090717;27;45765;-70
2022/07/30 01:55:06;;;;;;;1.50;1.50;;;24.50;66.60;;;;;;5070246;27;44935;-70
2022/07/30 01:57:45;;;;;;;1.60;1.60;;;24.40;67.00;;;;;;5073670;27;43977;-70
2022/07/30 02:00:15;;;;;;;1.50;1.50;;;24.40;67.50;;;;;;5111120;27;43507;-70
2022/07/30 02:02:49;;;;;;;1.57;1.57;;;24.40;67.30;;;;;;5129030;27;43836;-69
2022/07/30 02:05:17;;;;;;;1.50;1.50;;;24.40;67.20;;;;;;5110352;27;43905;-70
2022/07/30 02:07:47;;;;;;;1.30;1.30;;;24.30;67.60;;;;;;5110341;27;43407;-69
2022/07/30 02:10:17;;;;;;;1.50;1.50;;;24.30;68.10;;;;;;5129449;27;43900;-70
2022/07/30 02:12:50;;;;;;;1.50;1.50;;;24.40;67.90;;;;;;5110176;27;44118;-69
2022/07/30 02:15:25;;;;;;;1.70;1.70;;;24.40;67.40;;;;;;5110191;27;43999;-70
2022/07/30 02:17:56;;;;;;;1.63;1.63;;;24.60;67.00;;;;;;5110090;27;43947;-69
2022/07/30 02:20:27;;;;;;;1.50;1.50;;;24.70;66.70;;;;;;5129320;27;43358;-69
2022/07/30 02:23:06;;;;;;;1.30;1.30;;;24.70;66.50;;;;;;5109942;27;46042;-69
2022/07/30 02:25:35;;;;;;;1.47;1.47;;;24.70;66.30;;;;;;5110340;27;43997;-70
2022/07/30 02:28:05;;;;;;;1.60;1.60;;;24.60;66.80;;;;;;5110136;27;43984;-70
2022/07/30 02:30:36;;;;;;;1.70;1.60;;;24.50;66.90;;;;;;5110357;27;44143;-70
2022/07/30 02:33:07;;;;;;;1.80;1.80;;;24.50;66.90;;;;;;5109949;27;45919;-70
2022/07/30 02:35:35;;;;;;;1.80;1.70;;;24.50;66.80;;;;;;5110020;27;44989;-70
2022/07/30 02:38:03;;;;;;;1.63;1.63;;;24.40;67.30;;;;;;5109768;27;43932;-70
2022/07/30 02:40:31;;;;;;;1.47;1.47;;;24.40;67.70;;;;;;5110028;27;43436;-69
2022/07/30 02:42:59;;;;;;;1.50;1.50;;;24.40;67.40;;;;;;5108660;27;44043;-70
2022/07/30 02:45:29;;;;;;;1.53;1.53;;;24.50;67.10;;;;;;5109636;27;45400;-69
2022/07/30 02:48:00;;;;;;;1.50;1.50;;;24.60;66.70;;;;;;5109690;27;44015;-69
2022/07/30 02:50:28;;;;;;;1.67;1.60;;;24.70;66.50;;;;;;5128812;27;43443;-70
2022/07/30 02:52:58;;;;;;;1.70;1.70;;;24.70;66.30;;;;;;5109288;27;44073;-70
2022/07/30 02:55:27;;;;;;;1.60;1.60;;;24.70;66.20;;;;;;5128433;27;43327;-69
2022/07/30 02:57:55;;;;;;;1.40;1.40;;;24.60;66.90;;;;;;5109764;27;43347;-69
2022/07/30 03:00:24;;;;;;;1.50;1.50;;;24.50;66.90;;;;;;5109772;27;44063;-70
2022/07/30 03:02:52;;;;;;;1.73;1.73;;;24.50;66.80;;;;;;5109165;27;43814;-70
2022/07/30 03:05:25;;;;;;;1.80;1.80;;;24.50;66.80;;;;;;5128137;27;43424;-69
2022/07/30 03:07:54;;;;;;;1.53;1.53;;;24.40;67.10;;;;;;5109336;27;43889;-70
2022/07/30 03:10:22;;;;;;;1.50;1.50;;;24.40;67.70;;;;;;5128543;27;43419;-70
2022/07/30 03:12:50;;;;;;;1.50;1.50;;;24.40;67.60;;;;;;5127931;27;44014;-69
2022/07/30 03:15:18;;;;;;;1.40;1.40;;;24.50;67.20;;;;;;5109228;27;44319;-70
2022/07/30 03:17:52;;;;;;;1.70;1.70;;;24.60;66.80;;;;;;5109288;27;43880;-70
2022/07/30 03:20:26;;;;;;;1.70;1.70;;;24.70;66.60;;;;;;5109498;27;43947;-70
2022/07/30 03:22:57;;;;;;;1.80;1.80;;;24.70;66.50;;;;;;5108808;27;45430;-69
2022/07/30 03:25:26;;;;;;;1.60;1.60;;;24.60;66.40;;;;;;5127899;27;43920;-70
2022/07/30 03:27:56;;;;;;;1.50;1.50;;;24.50;66.90;;;;;;5109373;27;43351;-69
2022/07/30 03:30:24;;;;;;;1.60;1.60;;;24.50;68.00;;;;;;5128158;27;43970;-70
2022/07/30 03:32:53;;;;;;;1.77;1.77;;;24.50;67.00;;;;;;5127833;27;44062;-70
2022/07/30 03:35:23;;;;;;;1.50;1.50;;;24.40;66.80;;;;;;5109196;27;44719;-70
2022/07/30 03:37:56;;;;;;;1.60;1.60;;;24.40;67.40;;;;;;5108939;27;43916;-70
2022/07/30 03:40:24;;;;;;;1.70;1.70;;;24.40;67.80;;;;;;5108954;27;44002;-69
2022/07/30 03:42:52;;;;;;;1.40;1.40;;;24.30;67.60;;;;;;5107981;27;44063;-70
2022/07/30 03:45:23;;;;;;;1.40;1.40;;;24.30;67.50;;;;;;5088995;27;43460;-70
2022/07/30 03:47:55;;;;;;;1.70;1.70;;;24.30;67.70;;;;;;5089281;27;43883;-69
2022/07/30 03:50:24;;;;;;;1.40;1.40;;;24.30;68.20;;;;;;5089497;27;44112;-69
2022/07/30 03:52:52;;;;;;;1.50;1.50;;;24.30;68.00;;;;;;5088981;27;45414;-70
2022/07/30 03:55:21;;;;;;;1.47;1.47;;;24.40;68.30;;;;;;5091457;27;43871;-69
2022/07/30 03:57:49;;;;;;;1.73;1.73;;;24.50;67.20;;;;;;5108265;27;43383;-69
2022/07/30 04:00:21;;;;;;;1.60;1.60;;;24.60;66.70;;;;;;5092436;27;44139;-70
2022/07/30 04:02:52;;;;;;;1.60;1.60;;;24.70;66.60;;;;;;5092803;27;45969;-70
2022/07/30 04:05:52;;;;;;;1.60;1.60;;;24.70;66.60;;;;;;5094194;27;43932;-70
2022/07/30 04:08:20;;;;;;;1.50;1.50;;;24.60;66.70;;;;;;5092913;27;43446;-70
2022/07/30 04:10:50;;;;;;;1.60;1.60;;;24.50;67.00;;;;;;5093302;27;44027;-70
2022/07/30 04:13:36;;;;;;;1.70;1.70;;;24.50;67.00;;;;;;5108434;27;44017;-69
2022/07/30 04:16:08;;;;;;;1.77;1.77;;;24.50;67.00;;;;;;5092522;27;44003;-69
2022/07/30 04:18:56;;;;;;;1.70;1.70;;;24.40;67.00;;;;;;5085721;27;43968;-70
2022/07/30 04:21:25;;;;;;;1.70;1.70;;;24.40;67.70;;;;;;5086282;27;43669;-70
2022/07/30 04:23:53;;;;;;;1.50;1.50;;;24.40;67.70;;;;;;5099431;27;45917;-70
2022/07/30 04:26:33;;;;;;;1.60;1.60;;;24.40;67.20;;;;;;5084990;27;44761;-69
2022/07/30 04:29:01;;;;;;;1.47;1.47;;;24.50;66.90;;;;;;5092298;27;44032;-69
2022/07/30 04:31:34;;;;;;;1.50;1.50;;;24.60;67.00;;;;;;5092669;27;43952;-70
2022/07/30 04:34:33;;;;;;;1.67;1.67;;;24.60;66.80;;;;;;5070693;27;43831;-69
2022/07/30 04:37:04;;;;;;;1.53;1.53;;;24.50;66.90;;;;;;5082525;27;44073;-70
2022/07/30 04:39:32;;;;;;;1.70;1.70;;;24.50;67.30;;;;;;5104499;27;43889;-70
2022/07/30 04:42:01;;;;;;;1.50;1.50;;;24.40;67.30;;;;;;5079081;27;43812;-69
2022/07/30 04:44:35;;;;;;;1.57;1.57;;;24.40;67.40;;;;;;5071568;27;44098;-70
2022/07/30 04:47:24;;;;;;;1.70;1.70;;;24.40;67.20;;;;;;5078476;28;44743;-70
2022/07/30 04:50:13;;;;;;;1.53;1.53;;;24.30;67.90;;;;;;5078321;27;43782;-70
2022/07/30 04:52:43;;;;;;;1.60;1.60;;;24.30;67.80;;;;;;5080054;27;44058;-70
2022/07/30 04:55:14;;;;;;;1.50;1.50;;;24.40;67.40;;;;;;5072078;27;44045;-70
2022/07/30 04:57:47;;;;;;;1.50;1.50;;;24.50;66.90;;;;;;5091032;27;43389;-68
2022/07/30 05:00:16;;;;;;;1.47;1.47;;;24.60;66.70;;;;;;5109823;27;43777;-69
2022/07/30 05:02:44;;;;;;;1.50;1.50;;;24.70;66.70;;;;;;5091757;27;44046;-70
2022/07/30 05:05:12;;;;;;;1.70;1.70;;;24.60;66.60;;;;;;5090744;27;45454;-70
2022/07/30 05:07:40;;;;;;;1.70;1.70;;;24.50;66.90;;;;;;5088885;27;43400;-69
2022/07/30 05:10:10;;;;;;;1.70;1.70;;;24.50;67.20;;;;;;5073073;27;44045;-70
2022/07/30 05:12:39;;;;;;;1.83;1.83;;;24.50;67.10;;;;;;5076055;27;44190;-69
2022/07/30 05:15:09;;;;;;;1.60;1.60;;;24.40;67.10;;;;;;5089778;27;44021;-69
2022/07/30 05:17:38;;;;;;;1.70;1.70;;;24.40;67.30;;;;;;5079930;27;43962;-69
2022/07/30 05:20:10;;;;;;;1.67;1.60;;;24.40;67.90;;;;;;5084047;27;43983;-69
2022/07/30 05:23:02;;;;;;;1.50;1.50;;;24.40;67.60;;;;;;5090893;27;44015;-70
2022/07/30 05:25:31;;;;;;;1.80;1.80;;;24.40;67.30;;;;;;5050322;28;46491;-69
2022/07/30 05:28:13;;;;;;;1.50;1.50;;;24.60;67.50;;;;;;5071510;27;43988;-70
2022/07/30 05:30:43;;;;;;;1.70;1.70;;;24.60;66.70;;;;;;5086066;27;44037;-70
2022/07/30 05:33:16;;;;;;;1.63;1.63;;;24.60;66.70;;;;;;5090836;27;43474;-69
2022/07/30 05:35:44;;;;;;;1.70;1.70;;;24.50;66.60;;;;;;5074367;27;44030;-70
2022/07/30 05:38:13;;;;;;;1.60;1.60;;;24.50;67.30;;;;;;5080324;27;43943;-71
2022/07/30 05:40:56;;;;;;;1.67;1.67;;;24.40;67.20;;;;;;5090199;27;43836;-70
2022/07/30 05:43:56;;;;;;;1.70;1.70;;;24.40;67.20;;;;;;5032631;27;43448;-69
2022/07/30 05:46:28;;;;;;;1.53;1.53;;;24.40;67.20;;;;;;5070833;27;45830;-69
2022/07/30 05:48:56;;;;;;;1.70;1.70;;;24.30;67.90;;;;;;5070797;27;43440;-70
2022/07/30 05:51:24;;;;;;;1.90;1.90;;;24.30;67.70;;;;;;5070512;27;43867;-69
2022/07/30 05:53:52;;;;;;;1.83;1.83;;;24.40;67.40;;;;;;5071069;27;44098;-70
2022/07/30 05:56:47;;;;;;;1.70;1.70;;;24.50;67.00;;;;;;5070480;28;44362;-70
2022/07/30 05:59:19;;;;;;;1.70;1.70;;;24.60;66.60;;;;;;5078649;27;45020;-70
2022/07/30 06:02:17;;;;;;;1.97;1.97;;;24.60;66.60;;;;;;5071834;27;44018;-69
2022/07/30 06:05:01;;;;;;;1.83;1.73;;;24.60;66.70;;;;;;5085916;27;43427;-70
2022/07/30 06:07:29;;;;;;;1.67;1.67;;;24.50;67.00;;;;;;5063818;27;43984;-70
2022/07/30 06:10:00;;;;;;;1.63;1.63;;;24.50;67.20;;;;;;5054233;27;45167;-69
2022/07/30 06:12:28;;;;;;;1.60;1.60;;;24.40;67.00;;;;;;5070446;27;44069;-70
2022/07/30 06:14:57;;;;;;;1.90;1.90;;;24.40;67.00;;;;;;5084987;27;43980;-69
2022/07/30 06:17:33;;;;;;;1.60;1.60;;;24.30;67.60;;;;;;5088835;27;45862;-71
2022/07/30 06:20:18;;;;;;;1.60;1.60;;;24.30;67.70;;;;;;5089666;27;45150;-69
2022/07/30 06:22:56;;;;;;;1.77;1.77;;;24.30;67.60;;;;;;5077316;28;43999;-69
2022/07/30 06:25:32;;;;;;;1.67;1.67;;;24.30;67.40;;;;;;5070538;27;43906;-69
2022/07/30 06:28:00;;;;;;;1.90;1.90;;;24.20;68.10;;;;;;5070345;27;44049;-70
2022/07/30 06:30:48;;;;;;;1.90;1.90;;;24.20;68.20;;;;;;5069893;27;44773;-69
2022/07/30 06:33:18;;;;;;;1.90;1.90;;;24.30;67.70;;;;;;5070113;27;43968;-70
2022/07/30 06:35:47;;;;;;;1.80;1.80;;;24.40;67.40;;;;;;5073649;27;43551;-70
2022/07/30 06:38:19;;;;;;;1.90;1.90;;;24.50;66.90;;;;;;5089413;27;44014;-70
2022/07/30 06:40:56;;;;;;;1.90;1.90;;;24.60;66.60;;;;;;5089079;27;46166;-70
2022/07/30 06:43:52;;;;;;;1.87;1.87;;;24.70;66.60;;;;;;5066042;27;43411;-69
2022/07/30 06:46:44;;;;;;;1.90;1.90;;;24.60;66.60;;;;;;5070474;28;43480;-69
2022/07/30 06:49:14;;;;;;;2.00;2.00;;;24.50;67.10;;;;;;5069831;28;43833;-70
2022/07/30 06:51:42;;;;;;;1.80;1.80;;;24.50;67.20;;;;;;5088229;27;43751;-70
2022/07/30 06:54:10;;;;;;;1.87;1.87;;;24.40;67.10;;;;;;5089282;27;43403;-69
2022/07/30 06:57:01;;;;;;;1.90;1.90;;;24.40;67.00;;;;;;5084197;27;43559;-69
2022/07/30 06:59:30;;;;;;;1.80;1.80;;;24.30;67.70;;;;;;5069495;27;44055;-70
2022/07/30 07:02:26;;;;;;;2.00;2.00;;;24.30;67.80;;;;;;5088857;27;43996;-70
2022/07/30 07:05:14;;;;;;;1.80;1.80;;;24.30;67.70;;;;;;5069651;27;43992;-69
2022/07/30 07:07:47;;;;;;;1.90;1.90;;;24.30;68.20;;;;;;5086207;27;44107;-70
2022/07/30 07:10:27;;;;;;;1.83;1.83;;;24.20;68.40;;;;;;5088946;27;46715;-69
2022/07/30 07:13:30;;;;;;;1.83;1.83;;;24.20;68.20;;;;;;5087718;27;44278;-70
2022/07/30 07:16:00;;;;;;;1.80;1.80;;;24.30;67.70;;;;;;5089021;27;43388;-70
2022/07/30 07:18:30;;;;;;;1.80;1.80;;;24.40;67.30;;;;;;5089277;27;43928;-69
2022/07/30 07:21:05;;;;;;;1.87;1.87;;;24.60;66.90;;;;;;5084954;28;43896;-70
2022/07/30 07:23:35;;;;;;;1.70;1.70;;;24.60;66.60;;;;;;5069183;28;43935;-70
2022/07/30 07:26:14;;;;;;;1.80;1.80;;;24.60;66.60;;;;;;5069508;28;43341;-70
2022/07/30 07:28:42;;;;;;;1.57;1.57;;;24.50;66.70;;;;;;5075821;27;44020;-70
2022/07/30 07:31:10;;;;;;;1.93;1.93;;;24.50;67.20;;;;;;5076056;28;45998;-70
2022/07/30 07:33:57;;;;;;;2.03;2.03;;;24.50;67.30;;;;;;5087417;27;44075;-69
2022/07/30 07:36:27;;;;;;;1.90;1.90;;;24.40;67.20;;;;;;5069204;27;44407;-70
2022/07/30 07:38:55;;;;;;;2.00;2.00;;;24.40;67.30;;;;;;5069497;27;44160;-70
2022/07/30 07:41:23;;;;;;;1.80;1.80;;;24.30;68.00;;;;;;5068751;27;45798;-69
2022/07/30 07:43:51;;;;;;;1.90;1.90;;;24.30;67.70;;;;;;5087453;27;43985;-69
2022/07/30 07:46:26;;;;;;;1.80;1.80;;;24.40;67.40;;;;;;5069005;27;43937;-69
2022/07/30 07:49:05;;;;;;;1.80;1.70;;;24.50;67.10;;;;;;5069536;28;43903;-69
2022/07/30 07:51:39;;;;;;;1.90;1.90;;;24.60;66.80;;;;;;5074245;27;46717;-70
2022/07/30 07:54:17;;;;;;;1.80;1.80;;;24.60;66.90;;;;;;5088157;27;44823;-70
2022/07/30 07:56:51;;;;;;;1.80;1.80;;;24.50;66.90;;;;;;5088413;27;44060;-69
2022/07/30 07:59:25;;;;;;;1.90;1.90;;;24.50;67.40;;;;;;5088684;27;43464;-70
2022/07/30 08:02:09;;;;;;;1.83;1.83;;;24.40;67.30;;;;;;5077583;28;44021;-70
2022/07/30 08:04:56;;;;;;;1.90;1.90;;;24.40;67.30;;;;;;5097333;27;44022;-69
2022/07/30 08:07:52;;;;;;;1.90;1.90;;;24.30;67.00;;;;;;5066037;28;44035;-70
2022/07/30 08:10:38;;;;;;;1.90;1.90;;;24.30;67.80;;;;;;5097732;27;44005;-70
2022/07/30 08:13:13;;;;;;;1.90;1.90;;;24.30;67.80;;;;;;5103487;27;43964;-71
2022/07/30 08:16:20;;;;;;;1.97;1.97;;;24.30;67.60;;;;;;5103555;27;43956;-70
2022/07/30 08:18:50;;;;;;;1.80;1.80;;;24.20;67.20;;;;;;5096809;27;43766;-69
2022/07/30 08:21:25;;;;;;;2.03;2.03;;;24.20;68.10;;;;;;5088480;27;44001;-70
2022/07/30 08:23:55;;;;;;;1.80;1.80;;;24.20;67.90;;;;;;5087581;27;46872;-69
2022/07/30 08:26:23;;;;;;;1.70;1.70;;;24.30;67.30;;;;;;5087855;27;44215;-69
2022/07/30 08:28:51;;;;;;;1.90;1.90;;;24.40;66.80;;;;;;5088136;27;43387;-71
2022/07/30 08:31:22;;;;;;;1.93;1.93;;;24.50;66.30;;;;;;5088483;27;43860;-70
2022/07/30 08:33:49;;;;;;;2.10;2.10;;;24.60;66.00;;;;;;5106590;27;43762;-70
2022/07/30 08:36:18;;;;;;;1.93;1.93;;;24.60;66.10;;;;;;5087591;27;44580;-70
2022/07/30 08:38:54;;;;;;;2.00;1.90;;;24.60;66.20;;;;;;5087882;27;43981;-70
2022/07/30 08:41:23;;;;;;;1.80;1.80;;;24.50;66.60;;;;;;5073119;27;43973;-70
2022/07/30 08:43:51;;;;;;;1.93;1.90;;;24.50;66.70;;;;;;5073883;27;47271;-69
2022/07/30 08:46:20;;;;;;;2.10;2.10;;;24.40;66.60;;;;;;5090844;27;43402;-69
2022/07/30 08:49:09;;;;;;;2.10;2.10;;;24.40;66.60;;;;;;5073033;28;43976;-69
2022/07/30 08:51:39;;;;;;;2.03;1.90;;;24.30;67.20;;;;;;5072224;28;43434;-70
2022/07/30 08:54:24;;;;;;;2.00;2.00;;;24.30;67.10;;;;;;5085657;27;46564;-70
2022/07/30 08:56:52;;;;;;;1.80;1.80;;;24.30;67.00;;;;;;5090874;27;44873;-70
2022/07/30 08:59:20;;;;;;;1.97;1.93;;;24.30;66.90;;;;;;5091170;27;44356;-69
2022/07/30 09:01:48;;;;;;;2.00;1.90;;;24.20;67.50;;;;;;5109866;27;43495;-69
2022/07/30 09:04:16;;;;;;;1.83;1.83;;;24.20;67.40;;;;;;5109488;27;43788;-69
2022/07/30 09:06:46;;;;;;;2.10;2.10;;;24.30;66.90;;;;;;5109468;27;43904;-70
2022/07/30 09:09:19;;;;;;;2.40;2.30;;;24.40;66.40;;;;;;5090947;27;43930;-69
2022/07/30 09:11:49;;;;;;;1.97;1.93;;;24.50;65.90;;;;;;5094521;27;43928;-70
2022/07/30 09:14:17;;;;;;;1.90;1.90;;;24.60;65.50;;;;;;5105198;27;44239;-70
2022/07/30 09:16:45;;;;;;;1.90;1.90;;;24.60;65.60;;;;;;5090504;27;45748;-69
2022/07/30 09:19:15;;;;;;;1.90;1.90;;;24.50;65.60;;;;;;5091253;27;43461;-69
2022/07/30 09:21:54;;;;;;;1.87;1.80;;;24.50;65.90;;;;;;5075312;27;43754;-70
2022/07/30 09:24:30;;;;;;;2.23;2.20;;;24.40;66.00;;;;;;5071031;28;44057;-70
2022/07/30 09:27:19;;;;;;;1.80;1.80;;;24.40;66.20;;;;;;5085994;27;44017;-70
2022/07/30 09:29:57;;;;;;;2.47;2.23;;;24.30;66.10;;;;;;5093335;27;43828;-69
2022/07/30 09:33:00;;;;;;;5.10;2.90;;;24.30;65.70;;;;;;5054383;28;43357;-70
2022/07/30 09:36:05;;;;;;;2.53;2.33;;;24.20;63.70;;;;;;5108424;27;43999;-70
2022/07/30 09:39:10;;;;;;;3.70;2.40;;;24.20;64.60;;;;;;5024950;28;43427;-70
2022/07/30 09:42:17;;;;;;;4.63;2.20;;;24.10;64.50;;;;;;5108353;27;43959;-69
2022/07/30 09:44:47;;;;;;;3.20;2.33;;;24.10;63.50;;;;;;5091380;27;44390;-69
2022/07/30 09:47:30;;;;;;;2.60;2.40;;;24.20;62.70;;;;;;5090225;27;43901;-69
2022/07/30 09:50:06;;;;;;;2.40;2.30;;;24.30;62.30;;;;;;5087124;27;45295;-70
2022/07/30 09:52:34;;;;;;;2.70;2.60;;;24.40;61.20;;;;;;5108949;27;44029;-69
2022/07/30 09:55:11;;;;;;;2.70;2.40;;;24.50;61.30;;;;;;5090709;27;43887;-70
2022/07/30 09:57:54;;;;;;;2.57;2.47;;;24.50;60.80;;;;;;5089757;27;45702;-70
2022/07/30 10:00:27;;;;;;;2.73;2.53;;;24.50;62.40;;;;;;5108498;27;43371;-70
2022/07/30 10:03:18;;;;;;;3.50;2.30;;;24.40;61.70;;;;;;5089713;27;43860;-69
2022/07/30 10:06:19;;;;;;;2.53;2.40;;;24.30;60.90;;;;;;5088636;27;44027;-71
2022/07/30 10:08:49;;;;;;;2.50;2.40;;;24.30;62.40;;;;;;5089314;27;43832;-70
2022/07/30 10:11:19;;;;;;;2.60;2.50;;;24.30;63.60;;;;;;5078479;28;44912;-70
2022/07/30 10:13:56;;;;;;;2.47;2.30;;;24.20;62.00;;;;;;5070574;28;43991;-70
2022/07/30 10:16:26;;;;;;;2.70;2.50;;;24.20;60.80;;;;;;5107471;27;44197;-71
2022/07/30 10:18:58;;;;;;;2.20;2.10;;;24.10;62.30;;;;;;5089611;27;45383;-70
2022/07/30 10:22:01;;;;;;;2.60;2.50;;;24.10;63.70;;;;;;5004783;28;43938;-69
2022/07/30 10:24:56;;;;;;;2.73;2.27;;;24.10;62.60;;;;;;5059696;27;44026;-69
2022/07/30 10:27:45;;;;;;;2.30;2.20;;;24.10;61.20;;;;;;5105474;27;43966;-70
2022/07/30 10:30:24;;;;;;;2.23;2.13;;;24.20;60.30;;;;;;5095128;27;44037;-70
2022/07/30 10:32:58;;;;;;;6.30;2.10;;;24.30;59.60;;;;;;5082433;27;43947;-69
2022/07/30 10:35:27;;;;;;;2.40;2.30;;;24.40;59.70;;;;;;5088614;27;43931;-70
2022/07/30 10:38:06;;;;;;;3.30;1.90;;;24.50;59.40;;;;;;5088838;27;43387;-70
2022/07/30 10:40:36;;;;;;;3.10;2.10;;;24.50;59.80;;;;;;5088041;27;44010;-69
2022/07/30 10:43:40;;;;;;;2.10;2.00;;;24.40;60.10;;;;;;5088063;27;44108;-70
2022/07/30 10:46:12;;;;;;;2.23;2.10;;;24.40;59.50;;;;;;5082671;27;43944;-69
2022/07/30 10:48:51;;;;;;;2.50;2.30;;;24.30;59.50;;;;;;5088524;27;44016;-69
2022/07/30 10:51:19;;;;;;;2.37;2.27;;;24.30;60.60;;;;;;5088041;27;43611;-70
2022/07/30 10:54:01;;;;;;;3.10;2.30;;;24.20;60.50;;;;;;5088018;27;44039;-69
2022/07/30 10:56:29;;;;;;;2.80;2.30;;;24.20;59.80;;;;;;5099704;27;43767;-70
2022/07/30 10:59:01;;;;;;;2.53;1.93;;;24.20;60.40;;;;;;5102044;27;43876;-70
2022/07/30 11:02:07;;;;;;;2.00;1.90;;;24.10;60.70;;;;;;5088114;27;44884;-70
2022/07/30 11:04:38;;;;;;;2.93;2.20;;;24.10;61.00;;;;;;5069120;28;44265;-70
2022/07/30 11:07:30;;;;;;;4.00;2.20;;;24.10;60.40;;;;;;5088112;27;43763;-70
2022/07/30 11:09:59;;;;;;;2.30;2.20;;;24.10;60.00;;;;;;5089811;27;43479;-70
2022/07/30 11:12:54;;;;;;;2.93;2.17;;;24.20;59.10;;;;;;5107481;27;43789;-70
2022/07/30 11:15:22;;;;;;;10.33;2.20;;;24.30;58.70;;;;;;5102804;27;43990;-69
2022/07/30 11:18:01;;;;;;;6.27;2.30;;;24.40;59.00;;;;;;5087894;27;43374;-69
2022/07/30 11:20:32;;;;;;;2.77;2.00;;;24.50;58.70;;;;;;5088385;27;44037;-69
2022/07/30 11:23:29;;;;;;;6.20;2.00;;;24.40;58.40;;;;;;5081258;27;43908;-69
2022/07/30 11:26:02;;;;;;;2.00;1.90;;;24.40;58.80;;;;;;5080050;27;43974;-69
2022/07/30 11:28:38;;;;;;;1.70;1.70;;;24.30;59.10;;;;;;5107358;27;43968;-69
2022/07/30 11:31:31;;;;;;;1.90;1.80;;;24.20;59.40;;;;;;5107713;27;44090;-69
2022/07/30 11:34:28;;;;;;;3.17;2.00;;;24.20;59.30;;;;;;5088703;27;46475;-70
2022/07/30 11:37:06;;;;;;;2.23;1.93;;;24.10;58.80;;;;;;5107015;27;43982;-70
2022/07/30 11:40:09;;;;;;;1.70;1.60;;;24.10;59.10;;;;;;5097775;27;43947;-69
2022/07/30 11:42:38;;;;;;;5.43;1.90;;;24.10;58.70;;;;;;5087713;27;43806;-70
2022/07/30 11:45:25;;;;;;;2.73;2.00;;;24.00;56.60;;;;;;5087403;27;43909;-70
2022/07/30 11:47:55;;;;;;;8.17;1.70;;;24.10;55.80;;;;;;5087081;27;44051;-70
2022/07/30 11:50:24;;;;;;;1.87;1.77;;;24.30;55.70;;;;;;5087409;27;44032;-69
2022/07/30 11:52:54;;;;;;;3.53;1.60;;;24.50;56.10;;;;;;5087732;27;43936;-69
2022/07/30 11:55:23;;;;;;;11.97;2.10;;;24.80;55.30;;;;;;5100800;27;43922;-69
2022/07/30 11:57:51;;;;;;;1.87;1.53;;;25.00;55.00;;;;;;5087044;27;44126;-69
2022/07/30 12:00:19;;;;;;;1.50;1.40;;;25.20;53.20;;;;;;5087361;27;43904;-69
2022/07/30 12:02:48;;;;;;;2.95;1.35;;;25.30;52.50;;;;;;5069334;27;44268;-69
2022/07/30 12:05:23;;;;;;;1.70;1.50;;;25.40;53.60;;;;;;5087190;27;43884;-69
2022/07/30 12:07:58;;;;;;;1.95;1.60;;;25.50;53.40;;;;;;5087060;27;43951;-70
2022/07/30 12:10:26;;;;;;;1.40;1.40;;;25.60;53.60;;;;;;5087227;27;43948;-70
2022/07/30 12:13:06;;;;;;;1.63;1.60;;;25.60;53.20;;;;;;5087516;27;43952;-70
2022/07/30 12:15:36;;;;;;;2.97;1.80;;;25.60;54.10;;;;;;5080063;27;43951;-71
2022/07/30 12:18:04;;;;;;;1.40;1.40;;;25.40;54.90;;;;;;5078550;27;45084;-70
2022/07/30 12:20:58;;;;;;;3.20;1.53;;;25.20;55.20;;;;;;5054628;27;43988;-69
2022/07/30 12:23:31;;;;;;;1.60;1.30;;;25.10;55.30;;;;;;5090986;27;43920;-69
2022/07/30 12:25:59;;;;;;;3.70;1.40;;;25.00;55.50;;;;;;5090565;27;44180;-69
2022/07/30 12:28:28;;;;;;;1.80;1.77;;;24.90;55.90;;;;;;5094285;27;43766;-70
2022/07/30 12:30:56;;;;;;;1.40;1.37;;;24.80;56.20;;;;;;5106461;27;43998;-69
2022/07/30 12:33:24;;;;;;;1.40;1.40;;;24.70;56.80;;;;;;5072358;28;44056;-69
2022/07/30 12:35:53;;;;;;;1.40;1.40;;;24.70;56.20;;;;;;5107924;27;44185;-70
2022/07/30 12:38:21;;;;;;;2.37;1.30;;;24.70;55.90;;;;;;5110004;27;44157;-70
2022/07/30 12:40:56;;;;;;;2.43;1.70;;;24.80;55.50;;;;;;5105318;27;43927;-68
2022/07/30 12:43:42;;;;;;;2.60;1.60;;;24.90;55.60;;;;;;5097287;27;43913;-70
2022/07/30 12:46:10;;;;;;;1.50;1.40;;;24.90;55.50;;;;;;5090337;27;44679;-70
2022/07/30 12:48:55;;;;;;;1.40;1.30;;;24.90;55.90;;;;;;5090331;27;44016;-69
2022/07/30 12:51:26;;;;;;;1.47;1.47;;;24.80;56.90;;;;;;5100686;27;43939;-69
2022/07/30 12:53:55;;;;;;;1.33;1.33;;;24.70;56.70;;;;;;5099834;27;43853;-70
2022/07/30 12:56:25;;;;;;;1.40;1.40;;;24.60;56.60;;;;;;5094019;27;44017;-69
2022/07/30 12:58:53;;;;;;;1.27;1.27;;;24.60;56.70;;;;;;5108802;27;45134;-69
2022/07/30 13:01:39;;;;;;;1.67;1.50;;;24.50;56.30;;;;;;5092011;27;43884;-71
2022/07/30 13:04:10;;;;;;;1.30;1.30;;;24.40;56.80;;;;;;5071728;27;43967;-69
2022/07/30 13:06:39;;;;;;;1.37;1.37;;;24.40;56.90;;;;;;5084315;27;43953;-69
2022/07/30 13:09:08;;;;;;;3.70;1.40;;;24.40;56.20;;;;;;5102293;27;43535;-69
2022/07/30 13:11:41;;;;;;;3.20;1.40;;;24.50;55.70;;;;;;5096120;27;43905;-70
2022/07/30 13:14:16;;;;;;;1.43;1.43;;;24.60;55.50;;;;;;5110011;27;43369;-68
2022/07/30 13:16:44;;;;;;;2.10;1.30;;;24.70;55.70;;;;;;5109488;27;43943;-70
2022/07/30 13:19:12;;;;;;;1.20;1.20;;;24.70;56.70;;;;;;5109450;27;43986;-69
2022/07/30 13:21:41;;;;;;;1.63;1.60;;;24.60;56.00;;;;;;5109531;27;43462;-69
2022/07/30 13:24:17;;;;;;;1.30;1.30;;;24.50;56.40;;;;;;5099481;27;43930;-69